Time;durP1;ratioP1;P1;durP2;ratioP2;P2;SDS_P1;SDS_P2;PMS_P1;PMS_P2;Temp;Humidity;BMP_temperature;BMP_pressure;BME280_temperature;BME280_humidity;BME280_pressure;Samples;Min_cycle;Max_cycle;Signal;HPM_P1;HPM_P2
2022/04/27 00:00:15;;;;;;;6.68;5.45;;;;;;;;;;5091007;28;20449;-48
2022/04/27 00:02:41;;;;;;;5.50;3.97;;;;;;;;;;5090996;28;20059;-45
2022/04/27 00:05:07;;;;;;;4.57;3.78;;;;;;;;;;5091362;28;20124;-49
2022/04/27 00:07:32;;;;;;;5.95;3.80;;;;;;;;;;5091795;28;20024;-51
2022/04/27 00:09:57;;;;;;;4.72;3.25;;;;;;;;;;5092338;28;20064;-50
2022/04/27 00:12:23;;;;;;;6.80;3.85;;;;;;;;;;5091998;28;20024;-49
2022/04/27 00:14:48;;;;;;;4.72;3.92;;;;;;;;;;5092073;28;20032;-48
2022/04/27 00:17:14;;;;;;;6.50;4.50;;;;;;;;;;5092218;28;20036;-46
2022/04/27 00:19:39;;;;;;;9.52;5.00;;;;;;;;;;5091971;28;20024;-44
2022/04/27 00:22:05;;;;;;;7.50;5.10;;;;;;;;;;5092082;28;20031;-46
2022/04/27 00:24:30;;;;;;;9.10;5.97;;;;;;;;;;5092166;28;20021;-45
2022/04/27 00:26:55;;;;;;;14.32;6.85;;;;;;;;;;5092195;28;20027;-45
2022/04/27 00:29:21;;;;;;;13.02;6.35;;;;;;;;;;5095527;28;20020;-44
2022/04/27 00:31:46;;;;;;;8.43;6.72;;;;;;;;;;5095475;28;20024;-45
2022/04/27 00:34:12;;;;;;;11.23;6.97;;;;;;;;;;5095520;28;20031;-47
2022/04/27 00:36:37;;;;;;;10.20;6.93;;;;;;;;;;5095437;28;20103;-46
2022/04/27 00:39:03;;;;;;;12.85;7.43;;;;;;;;;;5095286;28;20024;-50
2022/04/27 00:41:29;;;;;;;8.48;5.13;;;;;;;;;;5095212;28;20138;-47
2022/04/27 00:43:55;;;;;;;8.35;5.55;;;;;;;;;;5095534;28;20066;-46
2022/04/27 00:46:21;;;;;;;11.27;6.18;;;;;;;;;;5095166;28;20465;-48
2022/04/27 00:48:46;;;;;;;11.13;6.82;;;;;;;;;;5095397;28;20028;-51
2022/04/27 00:51:15;;;;;;;13.07;7.28;;;;;;;;;;5094915;28;20109;-52
2022/04/27 00:53:43;;;;;;;10.98;7.13;;;;;;;;;;5095071;28;20108;-49
2022/04/27 00:56:10;;;;;;;10.15;6.30;;;;;;;;;;5094960;28;20539;-51
2022/04/27 00:58:35;;;;;;;7.70;5.35;;;;;;;;;;5094796;28;20111;-49
2022/04/27 01:01:01;;;;;;;11.65;6.10;;;;;;;;;;5095170;28;20066;-47
2022/04/27 01:03:26;;;;;;;10.20;6.10;;;;;;;;;;5095030;28;20486;-45
2022/04/27 01:05:52;;;;;;;7.78;5.53;;;;;;;;;;5095104;28;20032;-45
2022/04/27 01:08:22;;;;;;;6.40;4.97;;;;;;;;;;5094808;28;20392;-46
2022/04/27 01:10:48;;;;;;;5.72;4.40;;;;;;;;;;5094823;28;20031;-46
2022/04/27 01:13:15;;;;;;;5.68;4.00;;;;;;;;;;5095016;28;20118;-46
2022/04/27 01:15:41;;;;;;;4.55;3.35;;;;;;;;;;5094631;28;20107;-48
2022/04/27 01:18:09;;;;;;;5.85;3.60;;;;;;;;;;5094569;28;20023;-47
2022/04/27 01:20:44;;;;;;;8.35;3.80;;;;;;;;;;5094484;28;20490;-46
2022/04/27 01:23:14;;;;;;;4.10;3.40;;;;;;;;;;5094694;28;20028;-45
2022/04/27 01:25:56;;;;;;;4.65;3.70;;;;;;;;;;5094810;28;20024;-45
2022/04/27 01:28:27;;;;;;;10.05;5.68;;;;;;;;;;5094628;28;20024;-45
2022/04/27 01:31:00;;;;;;;11.50;5.35;;;;;;;;;;5094581;28;20028;-46
2022/04/27 01:33:26;;;;;;;3.40;2.95;;;;;;;;;;5094396;28;20020;-47
2022/04/27 01:35:52;;;;;;;9.50;5.22;;;;;;;;;;5076457;28;20375;-51
2022/04/27 01:38:18;;;;;;;9.10;5.05;;;;;;;;;;5094152;28;20073;-45
2022/04/27 01:40:47;;;;;;;8.57;5.43;;;;;;;;;;5094131;28;20532;-49
2022/04/27 01:43:16;;;;;;;6.93;4.88;;;;;;;;;;5094270;28;20024;-51
2022/04/27 01:45:45;;;;;;;6.55;5.05;;;;;;;;;;5094062;28;20027;-48
2022/04/27 01:48:13;;;;;;;6.60;4.65;;;;;;;;;;5094252;28;20030;-52
2022/04/27 01:50:38;;;;;;;10.10;5.38;;;;;;;;;;5093856;28;20411;-46
2022/04/27 01:55:49;;;;;;;6.53;4.88;;;;;;;;;;5093890;28;20533;-48
2022/04/27 01:58:15;;;;;;;8.68;4.65;;;;;;;;;;5093748;28;20028;-50
2022/04/27 02:00:40;;;;;;;6.93;4.50;;;;;;;;;;5093712;28;20024;-45
2022/04/27 02:03:06;;;;;;;7.40;5.07;;;;;;;;;;5093869;28;20034;-46
2022/04/27 02:05:31;;;;;;;9.00;4.88;;;;;;;;;;5093972;28;20028;-46
2022/04/27 02:07:56;;;;;;;8.25;4.85;;;;;;;;;;5093929;28;20393;-47
2022/04/27 02:10:22;;;;;;;8.13;5.30;;;;;;;;;;5093799;28;20107;-47
2022/04/27 02:12:48;;;;;;;8.38;5.05;;;;;;;;;;5093870;28;20371;-45
2022/04/27 02:15:13;;;;;;;7.72;5.40;;;;;;;;;;5093537;28;20020;-49
2022/04/27 02:17:39;;;;;;;7.88;5.38;;;;;;;;;;5093697;28;20036;-51
2022/04/27 02:20:05;;;;;;;7.35;4.88;;;;;;;;;;5093423;28;20488;-46
2022/04/27 02:22:33;;;;;;;7.13;4.68;;;;;;;;;;5093519;28;20107;-49
2022/04/27 02:24:59;;;;;;;6.57;4.22;;;;;;;;;;5093343;28;20187;-46
2022/04/27 02:27:25;;;;;;;6.80;4.63;;;;;;;;;;5093578;28;20106;-49
2022/04/27 02:29:50;;;;;;;10.23;4.90;;;;;;;;;;5093152;28;20024;-46
2022/04/27 02:32:16;;;;;;;7.07;4.57;;;;;;;;;;5093464;28;20024;-52
2022/04/27 02:34:42;;;;;;;8.93;4.85;;;;;;;;;;5093109;28;20053;-48
2022/04/27 02:37:07;;;;;;;11.32;6.63;;;;;;;;;;5093389;28;20034;-50
2022/04/27 02:39:33;;;;;;;10.30;6.38;;;;;;;;;;5093121;28;20031;-46
2022/04/27 02:41:58;;;;;;;11.25;6.38;;;;;;;;;;5092968;28;20082;-45
2022/04/27 02:44:23;;;;;;;9.85;6.60;;;;;;;;;;5093314;28;20024;-50
2022/04/27 02:46:49;;;;;;;10.95;6.80;;;;;;;;;;5092972;28;20034;-49
2022/04/27 02:51:58;;;;;;;8.60;6.03;;;;;;;;;;5092890;28;20120;-52
2022/04/27 02:54:23;;;;;;;11.32;6.45;;;;;;;;;;5093132;28;20082;-51
2022/04/27 02:56:49;;;;;;;10.02;6.40;;;;;;;;;;5093116;28;20052;-51
2022/04/27 02:59:16;;;;;;;11.23;6.95;;;;;;;;;;5093074;28;20452;-47
2022/04/27 03:01:42;;;;;;;9.98;6.32;;;;;;;;;;5092599;28;20061;-52
2022/04/27 03:04:09;;;;;;;10.55;6.28;;;;;;;;;;5092714;28;20027;-51
2022/04/27 03:06:35;;;;;;;9.73;6.68;;;;;;;;;;5092708;28;20027;-47
2022/04/27 03:09:00;;;;;;;9.63;7.00;;;;;;;;;;5092693;28;20032;-46
2022/04/27 03:11:26;;;;;;;12.25;7.35;;;;;;;;;;5092966;28;20024;-51
2022/04/27 03:13:51;;;;;;;11.23;7.53;;;;;;;;;;5092572;28;20038;-51
2022/04/27 03:16:17;;;;;;;11.48;7.57;;;;;;;;;;5092635;28;20016;-47
2022/04/27 03:18:43;;;;;;;14.50;8.57;;;;;;;;;;5074846;28;20028;-50
2022/04/27 03:21:09;;;;;;;16.23;8.35;;;;;;;;;;5092447;28;20028;-52
2022/04/27 03:23:35;;;;;;;13.18;7.93;;;;;;;;;;5092700;28;20437;-45
2022/04/27 03:26:00;;;;;;;13.60;8.82;;;;;;;;;;5074773;28;20028;-44
2022/04/27 03:28:26;;;;;;;11.43;6.95;;;;;;;;;;5092478;28;20031;-45
2022/04/27 03:30:51;;;;;;;11.15;7.90;;;;;;;;;;5092389;28;20423;-44
2022/04/27 03:33:18;;;;;;;13.20;8.40;;;;;;;;;;5092482;28;20111;-48
2022/04/27 03:35:43;;;;;;;12.50;8.57;;;;;;;;;;5092671;28;20052;-46
2022/04/27 03:38:09;;;;;;;13.57;8.15;;;;;;;;;;5092437;28;20048;-46
2022/04/27 03:40:35;;;;;;;15.13;8.93;;;;;;;;;;5092668;28;20031;-44
2022/04/27 03:43:01;;;;;;;12.40;8.35;;;;;;;;;;5092544;28;20032;-49
2022/04/27 03:45:27;;;;;;;14.48;9.05;;;;;;;;;;5092358;28;20387;-45
2022/04/27 03:47:52;;;;;;;20.90;5.88;;;;;;;;;;5092567;28;20038;-48
2022/04/27 03:50:18;;;;;;;65.93;6.15;;;;;;;;;;5092105;28;20454;-49
2022/04/27 03:52:43;;;;;;;9.75;6.68;;;;;;;;;;5092551;28;20111;-51
2022/04/27 03:55:09;;;;;;;12.27;7.88;;;;;;;;;;5092268;28;20103;-47
2022/04/27 03:57:35;;;;;;;16.02;8.65;;;;;;;;;;5092489;28;20103;-46
2022/04/27 04:00:00;;;;;;;12.20;7.78;;;;;;;;;;5092204;28;20066;-50
2022/04/27 04:02:26;;;;;;;14.52;8.65;;;;;;;;;;5094770;28;20032;-45
2022/04/27 04:04:51;;;;;;;15.70;9.90;;;;;;;;;;5096313;28;20229;-45
2022/04/27 04:07:17;;;;;;;13.90;9.10;;;;;;;;;;5096249;28;20030;-45
2022/04/27 04:09:42;;;;;;;13.93;8.57;;;;;;;;;;5095947;28;20024;-44
2022/04/27 04:12:08;;;;;;;10.50;7.47;;;;;;;;;;5095828;28;20029;-48
2022/04/27 04:14:34;;;;;;;9.85;6.65;;;;;;;;;;5096099;28;20028;-45
2022/04/27 04:17:00;;;;;;;11.82;7.50;;;;;;;;;;5096072;28;20028;-46
2022/04/27 04:19:25;;;;;;;8.38;6.18;;;;;;;;;;5095778;28;20099;-49
2022/04/27 04:21:51;;;;;;;8.35;6.63;;;;;;;;;;5095599;28;20154;-46
2022/04/27 04:24:17;;;;;;;10.10;6.45;;;;;;;;;;5095976;28;20025;-46
2022/04/27 04:29:27;;;;;;;10.07;6.70;;;;;;;;;;5095667;28;20055;-46
2022/04/27 04:31:52;;;;;;;8.77;6.38;;;;;;;;;;5095808;28;20479;-45
2022/04/27 04:34:18;;;;;;;10.77;7.43;;;;;;;;;;5095747;28;20107;-47
2022/04/27 04:36:43;;;;;;;9.52;7.10;;;;;;;;;;5095664;28;20043;-43
2022/04/27 04:39:09;;;;;;;10.68;7.15;;;;;;;;;;5095634;28;20035;-51
2022/04/27 04:41:35;;;;;;;10.55;7.47;;;;;;;;;;5095602;28;20024;-49
2022/04/27 04:44:00;;;;;;;10.82;6.82;;;;;;;;;;5095538;28;20039;-50
2022/04/27 04:46:25;;;;;;;13.43;8.07;;;;;;;;;;5095232;28;20032;-46
2022/04/27 04:48:51;;;;;;;11.02;7.75;;;;;;;;;;5095567;28;20031;-44
2022/04/27 04:51:16;;;;;;;10.75;7.78;;;;;;;;;;5095405;28;20032;-47
2022/04/27 04:53:42;;;;;;;12.35;7.93;;;;;;;;;;5095005;28;20403;-45
2022/04/27 04:56:07;;;;;;;13.27;8.65;;;;;;;;;;5095296;28;20063;-48
2022/04/27 04:58:32;;;;;;;13.48;9.18;;;;;;;;;;5094950;28;20017;-49
2022/04/27 05:00:59;;;;;;;12.73;8.10;;;;;;;;;;5094920;28;20039;-50
2022/04/27 05:03:24;;;;;;;12.77;8.65;;;;;;;;;;5094924;28;20077;-50
2022/04/27 05:05:50;;;;;;;12.07;7.97;;;;;;;;;;5094887;28;20020;-48
2022/04/27 05:08:15;;;;;;;9.32;7.47;;;;;;;;;;5094756;28;20020;-47
2022/04/27 05:10:40;;;;;;;10.63;7.43;;;;;;;;;;5095059;28;20467;-50
2022/04/27 05:13:06;;;;;;;10.82;7.80;;;;;;;;;;5094084;28;20077;-45
2022/04/27 05:15:31;;;;;;;11.60;7.78;;;;;;;;;;5094610;28;20114;-47
2022/04/27 05:17:57;;;;;;;11.02;7.60;;;;;;;;;;5094863;28;20024;-50
2022/04/27 05:20:23;;;;;;;11.43;8.15;;;;;;;;;;5094834;28;20107;-48
2022/04/27 05:22:48;;;;;;;13.90;7.28;;;;;;;;;;5094763;28;20031;-51
2022/04/27 05:25:14;;;;;;;9.20;7.45;;;;;;;;;;5094470;28;20020;-49
2022/04/27 05:27:40;;;;;;;9.90;7.07;;;;;;;;;;5094461;28;20428;-48
2022/04/27 05:32:50;;;;;;;8.55;6.88;;;;;;;;;;5094403;28;20038;-46
2022/04/27 05:35:16;;;;;;;15.52;8.23;;;;;;;;;;5094564;28;20115;-49
2022/04/27 05:37:42;;;;;;;11.68;7.53;;;;;;;;;;5094496;28;20036;-47
2022/04/27 05:40:09;;;;;;;11.25;7.60;;;;;;;;;;5094408;28;20028;-50
2022/04/27 05:42:36;;;;;;;12.00;7.80;;;;;;;;;;5094025;28;20032;-48
2022/04/27 05:45:05;;;;;;;10.25;7.80;;;;;;;;;;5093991;28;20034;-47
2022/04/27 05:47:31;;;;;;;8.85;6.97;;;;;;;;;;5093981;28;20119;-47
2022/04/27 05:49:56;;;;;;;10.57;7.47;;;;;;;;;;5093631;28;20135;-44
2022/04/27 05:52:22;;;;;;;8.95;6.82;;;;;;;;;;5093934;28;20064;-53
2022/04/27 05:54:48;;;;;;;9.07;7.05;;;;;;;;;;5093870;28;20040;-47
2022/04/27 05:57:14;;;;;;;7.28;6.50;;;;;;;;;;5093748;28;20028;-47
2022/04/27 05:59:39;;;;;;;10.82;6.80;;;;;;;;;;5094048;28;20038;-46
2022/04/27 06:02:05;;;;;;;9.40;7.32;;;;;;;;;;5093571;28;20021;-50
2022/04/27 06:04:30;;;;;;;8.95;6.75;;;;;;;;;;5093740;28;20024;-51
2022/04/27 06:06:56;;;;;;;10.13;6.57;;;;;;;;;;5093897;28;20107;-50
2022/04/27 06:09:21;;;;;;;8.05;6.15;;;;;;;;;;5093582;28;20027;-47
2022/04/27 06:11:47;;;;;;;10.30;6.78;;;;;;;;;;5093780;28;20040;-49
2022/04/27 06:14:13;;;;;;;7.30;6.32;;;;;;;;;;5093437;28;20122;-51
2022/04/27 06:16:38;;;;;;;9.25;6.82;;;;;;;;;;5075610;28;20050;-51
2022/04/27 06:19:04;;;;;;;7.75;6.53;;;;;;;;;;5093710;28;20024;-50
2022/04/27 06:21:33;;;;;;;7.55;6.65;;;;;;;;;;5093568;28;20509;-47
2022/04/27 06:24:04;;;;;;;7.68;6.30;;;;;;;;;;5093386;28;20020;-47
2022/04/27 06:26:33;;;;;;;9.15;6.63;;;;;;;;;;5092453;28;20024;-49
2022/04/27 06:29:01;;;;;;;8.02;6.20;;;;;;;;;;5093094;28;20038;-50
2022/04/27 06:31:27;;;;;;;9.30;6.65;;;;;;;;;;5092771;28;20383;-48
2022/04/27 06:33:52;;;;;;;8.43;6.07;;;;;;;;;;5091300;28;20032;-43
2022/04/27 06:36:18;;;;;;;8.02;6.72;;;;;;;;;;5091632;28;20063;-51
2022/04/27 06:38:43;;;;;;;7.18;6.38;;;;;;;;;;5093337;28;20063;-47
2022/04/27 06:41:08;;;;;;;9.45;6.78;;;;;;;;;;5092983;28;20020;-47
2022/04/27 06:43:34;;;;;;;7.80;6.28;;;;;;;;;;5093096;28;20081;-49
2022/04/27 06:46:00;;;;;;;10.88;8.27;;;;;;;;;;5093223;28;20049;-49
2022/04/27 06:48:27;;;;;;;10.40;8.05;;;;;;;;;;5093234;28;20016;-49
2022/04/27 06:50:52;;;;;;;11.68;7.88;;;;;;;;;;5092175;28;20130;-51
2022/04/27 06:53:18;;;;;;;8.05;6.60;;;;;;;;;;5091282;28;20583;-50
2022/04/27 06:55:43;;;;;;;9.98;7.22;;;;;;;;;;5092571;28;20472;-51
2022/04/27 06:58:09;;;;;;;7.38;6.55;;;;;;;;;;5092273;28;20376;-53
2022/04/27 07:00:36;;;;;;;8.60;6.43;;;;;;;;;;5085853;28;20111;-49
2022/04/27 07:03:03;;;;;;;8.45;7.25;;;;;;;;;;5079455;28;20046;-48
2022/04/27 07:05:29;;;;;;;7.95;7.13;;;;;;;;;;5074980;28;20029;-48
2022/04/27 07:07:54;;;;;;;9.70;7.20;;;;;;;;;;5083942;28;20031;-49
2022/04/27 07:10:20;;;;;;;8.73;7.43;;;;;;;;;;5086613;28;20513;-45
2022/04/27 07:12:48;;;;;;;8.00;6.55;;;;;;;;;;5071668;28;20031;-48
2022/04/27 07:15:14;;;;;;;8.80;6.50;;;;;;;;;;5072634;28;20396;-49
2022/04/27 07:17:39;;;;;;;8.32;6.63;;;;;;;;;;5072250;28;20115;-48
2022/04/27 07:20:07;;;;;;;10.23;6.53;;;;;;;;;;5071105;28;20035;-52
2022/04/27 07:22:32;;;;;;;8.90;7.07;;;;;;;;;;5070687;28;20040;-52
2022/04/27 07:24:57;;;;;;;8.32;6.50;;;;;;;;;;5070643;28;20714;-50
2022/04/27 07:27:23;;;;;;;8.70;6.82;;;;;;;;;;5070686;28;20032;-49
2022/04/27 07:29:48;;;;;;;9.35;7.57;;;;;;;;;;5070598;28;20040;-49
2022/04/27 07:32:14;;;;;;;11.57;8.00;;;;;;;;;;5070770;28;20035;-52
2022/04/27 07:34:39;;;;;;;10.30;6.50;;;;;;;;;;5070563;28;20055;-50
2022/04/27 07:37:05;;;;;;;6.80;5.82;;;;;;;;;;5072501;28;20036;-50
2022/04/27 07:39:31;;;;;;;7.72;6.13;;;;;;;;;;5074571;28;20050;-49
2022/04/27 07:41:57;;;;;;;8.82;6.57;;;;;;;;;;5074547;28;20388;-45
2022/04/27 07:44:22;;;;;;;8.32;6.78;;;;;;;;;;5074296;28;20028;-47
2022/04/27 07:46:47;;;;;;;9.48;7.13;;;;;;;;;;5074481;28;20095;-51
2022/04/27 07:49:20;;;;;;;9.30;7.22;;;;;;;;;;5074281;28;20446;-46
2022/04/27 07:51:46;;;;;;;10.27;7.90;;;;;;;;;;5074335;28;20043;-46
2022/04/27 07:54:12;;;;;;;9.23;7.60;;;;;;;;;;5056631;28;20032;-44
2022/04/27 07:56:38;;;;;;;9.90;7.78;;;;;;;;;;5074581;28;20372;-48
2022/04/27 07:59:03;;;;;;;18.20;10.18;;;;;;;;;;5074298;28;20024;-47
2022/04/27 08:01:28;;;;;;;11.60;8.38;;;;;;;;;;5089230;28;20357;-54
2022/04/27 08:03:54;;;;;;;9.35;7.15;;;;;;;;;;5094541;28;20031;-50
2022/04/27 08:06:19;;;;;;;9.32;7.68;;;;;;;;;;5088399;28;20075;-52
2022/04/27 08:08:44;;;;;;;7.75;6.80;;;;;;;;;;5084633;28;20028;-49
2022/04/27 08:11:13;;;;;;;7.93;6.97;;;;;;;;;;5083267;28;20021;-50
2022/04/27 08:13:38;;;;;;;9.95;7.40;;;;;;;;;;5082596;28;20020;-50
2022/04/27 08:16:04;;;;;;;8.25;7.07;;;;;;;;;;5084748;28;20069;-53
2022/04/27 08:18:29;;;;;;;8.60;7.03;;;;;;;;;;5083297;28;20104;-49
2022/04/27 08:23:40;;;;;;;8.55;7.53;;;;;;;;;;5093586;28;20506;-52
2022/04/27 08:26:07;;;;;;;11.00;8.63;;;;;;;;;;5089560;28;20387;-48
2022/04/27 08:28:33;;;;;;;13.13;8.65;;;;;;;;;;5093919;28;20056;-50
2022/04/27 08:30:59;;;;;;;9.48;7.13;;;;;;;;;;5092779;28;20054;-52
2022/04/27 08:33:24;;;;;;;10.32;8.48;;;;;;;;;;5073869;28;20029;-48
2022/04/27 08:35:51;;;;;;;9.75;7.22;;;;;;;;;;5073637;28;20021;-52
2022/04/27 08:38:16;;;;;;;12.15;8.63;;;;;;;;;;5073328;28;20508;-48
2022/04/27 08:40:44;;;;;;;9.60;7.50;;;;;;;;;;5073613;28;20089;-50
2022/04/27 08:43:10;;;;;;;8.82;7.70;;;;;;;;;;5073671;28;20090;-52
2022/04/27 08:45:37;;;;;;;10.57;8.02;;;;;;;;;;5073645;28;20165;-50
2022/04/27 08:48:04;;;;;;;13.65;9.00;;;;;;;;;;5072545;28;20032;-49
2022/04/27 08:50:30;;;;;;;10.20;8.18;;;;;;;;;;5072888;28;20072;-50
2022/04/27 08:52:56;;;;;;;9.95;7.55;;;;;;;;;;5083318;28;20056;-52
2022/04/27 08:55:22;;;;;;;9.90;7.78;;;;;;;;;;5081871;28;20025;-50
2022/04/27 08:57:48;;;;;;;11.00;7.30;;;;;;;;;;5074098;28;20024;-45
2022/04/27 09:00:18;;;;;;;8.48;6.55;;;;;;;;;;5073991;28;20105;-53
2022/04/27 09:02:44;;;;;;;10.93;7.68;;;;;;;;;;5073178;28;20125;-49
2022/04/27 09:05:18;;;;;;;8.48;6.60;;;;;;;;;;5073090;28;20028;-48
2022/04/27 09:07:46;;;;;;;14.10;8.60;;;;;;;;;;5072964;28;20078;-50
2022/04/27 09:10:17;;;;;;;12.57;9.02;;;;;;;;;;5073182;28;20358;-47
2022/04/27 09:12:46;;;;;;;8.85;7.57;;;;;;;;;;5072990;28;20480;-42
2022/04/27 09:15:14;;;;;;;10.32;7.40;;;;;;;;;;5077739;28;20032;-50
2022/04/27 09:23:21;;;;;;;15.25;8.32;;;;;;;;;;5072735;28;20048;-49
2022/04/27 09:25:48;;;;;;;8.80;7.82;;;;;;;;;;5072683;28;20025;-54
2022/04/27 09:28:13;;;;;;;12.27;8.07;;;;;;;;;;5072763;28;20032;-51
2022/04/27 09:30:39;;;;;;;15.23;8.38;;;;;;;;;;5072659;28;20549;-45
2022/04/27 09:33:04;;;;;;;12.00;9.82;;;;;;;;;;5072669;28;20033;-47
2022/04/27 09:35:37;;;;;;;8.93;7.40;;;;;;;;;;5073205;28;20016;-46
2022/04/27 09:38:17;;;;;;;9.98;7.22;;;;;;;;;;5072543;28;20200;-48
2022/04/27 09:40:43;;;;;;;9.73;6.93;;;;;;;;;;5073002;28;20103;-48
2022/04/27 09:43:09;;;;;;;11.75;7.32;;;;;;;;;;5073071;28;20025;-47
2022/04/27 09:45:34;;;;;;;9.85;7.38;;;;;;;;;;5073959;28;20081;-46
2022/04/27 09:48:03;;;;;;;10.57;7.45;;;;;;;;;;5074006;28;20024;-48
2022/04/27 09:50:55;;;;;;;12.95;7.90;;;;;;;;;;5073585;28;20121;-48
2022/04/27 09:53:21;;;;;;;10.35;8.48;;;;;;;;;;5073805;28;20028;-48
2022/04/27 09:55:54;;;;;;;10.98;7.90;;;;;;;;;;5073962;28;20518;-48
2022/04/27 09:58:19;;;;;;;10.35;7.75;;;;;;;;;;5073870;28;20025;-48
2022/04/27 10:00:48;;;;;;;10.65;7.63;;;;;;;;;;5073356;28;20035;-50
2022/04/27 10:03:21;;;;;;;13.48;8.35;;;;;;;;;;5055208;28;20437;-47
2022/04/27 10:05:47;;;;;;;13.40;9.38;;;;;;;;;;5073490;28;20024;-50
2022/04/27 10:08:13;;;;;;;13.15;9.75;;;;;;;;;;5073393;28;20051;-47
2022/04/27 10:10:45;;;;;;;14.60;9.73;;;;;;;;;;5073564;28;20025;-44
2022/04/27 10:13:12;;;;;;;11.98;10.10;;;;;;;;;;5073543;28;20039;-46
2022/04/27 10:15:42;;;;;;;13.48;10.73;;;;;;;;;;5072648;28;20048;-47
2022/04/27 10:18:14;;;;;;;;;;;;;;;;;;5072073;28;20154;-44
2022/04/27 10:20:40;;;;;;;13.13;10.20;;;;;;;;;;5071536;28;19995;-50
2022/04/27 10:23:15;;;;;;;14.85;11.18;;;;;;;;;;5071457;28;20044;-50
2022/04/27 10:25:40;;;;;;;17.55;11.57;;;;;;;;;;5071353;28;20032;-48
2022/04/27 10:28:18;;;;;;;12.80;10.40;;;;;;;;;;5071757;28;20027;-49
2022/04/27 10:30:44;;;;;;;12.88;10.45;;;;;;;;;;5071739;28;20031;-48
2022/04/27 10:33:09;;;;;;;14.15;10.30;;;;;;;;;;5071273;28;20021;-53
2022/04/27 10:35:36;;;;;;;11.80;9.63;;;;;;;;;;5071350;28;20024;-56
2022/04/27 10:38:05;;;;;;;13.63;10.85;;;;;;;;;;5071242;28;20032;-51
2022/04/27 10:40:43;;;;;;;19.90;12.90;;;;;;;;;;5071651;28;20157;-50
2022/04/27 10:43:13;;;;;;;16.92;12.73;;;;;;;;;;5071440;28;20032;-50
2022/04/27 10:45:48;;;;;;;17.58;14.45;;;;;;;;;;5071472;28;20110;-44
2022/04/27 10:48:24;;;;;;;21.33;14.68;;;;;;;;;;5071098;28;20047;-51
2022/04/27 10:51:07;;;;;;;18.42;13.45;;;;;;;;;;5070341;28;20396;-43
2022/04/27 10:53:43;;;;;;;18.85;14.05;;;;;;;;;;5071132;28;20072;-50
2022/04/27 10:56:23;;;;;;;18.50;13.88;;;;;;;;;;5071020;28;20032;-50
2022/04/27 10:58:48;;;;;;;22.45;16.17;;;;;;;;;;5070967;28;20037;-50
2022/04/27 11:01:20;;;;;;;21.30;15.20;;;;;;;;;;5071079;28;20021;-49
2022/04/27 11:04:03;;;;;;;21.38;15.23;;;;;;;;;;5070838;28;20387;-44
2022/04/27 11:06:56;;;;;;;20.23;14.70;;;;;;;;;;5070871;28;20121;-47
2022/04/27 11:09:31;;;;;;;29.23;17.25;;;;;;;;;;5070756;28;20032;-51
2022/04/27 11:11:56;;;;;;;20.13;14.82;;;;;;;;;;5070184;28;20572;-47
2022/04/27 11:14:29;;;;;;;23.17;16.80;;;;;;;;;;5070847;28;20111;-50
2022/04/27 11:16:55;;;;;;;24.45;16.27;;;;;;;;;;5071138;28;20047;-51
2022/04/27 11:19:20;;;;;;;27.40;16.45;;;;;;;;;;5072346;28;20029;-46
2022/04/27 11:21:48;;;;;;;23.95;17.00;;;;;;;;;;5079870;28;20035;-43
2022/04/27 11:24:15;;;;;;;22.80;16.27;;;;;;;;;;5080617;28;20025;-47
2022/04/27 11:26:46;;;;;;;20.60;15.75;;;;;;;;;;5082019;28;20051;-51
2022/04/27 11:29:12;;;;;;;23.98;16.50;;;;;;;;;;5084852;28;20027;-47
2022/04/27 11:31:38;;;;;;;21.30;15.50;;;;;;;;;;5090810;28;20034;-51
2022/04/27 11:34:27;;;;;;;20.63;15.25;;;;;;;;;;5090852;28;20540;-48
2022/04/27 11:36:54;;;;;;;19.50;14.88;;;;;;;;;;5090748;28;20500;-53
2022/04/27 11:39:24;;;;;;;21.50;15.02;;;;;;;;;;5090304;28;20069;-48
2022/04/27 11:41:59;;;;;;;;;;;;;;;;;;5090802;28;20036;-51
2022/04/27 11:44:25;;;;;;;16.77;12.40;;;;;;;;;;5090643;28;19928;-50
2022/04/27 11:46:51;;;;;;;21.90;14.50;;;;;;;;;;5090743;28;20028;-52
2022/04/27 11:49:16;;;;;;;17.60;13.70;;;;;;;;;;5090804;28;20032;-45
2022/04/27 11:51:49;;;;;;;18.80;14.48;;;;;;;;;;5091077;28;20031;-52
2022/04/27 11:54:28;;;;;;;18.58;14.65;;;;;;;;;;5071644;28;20024;-44
2022/04/27 11:57:07;;;;;;;18.97;15.30;;;;;;;;;;5090486;28;20039;-54
2022/04/27 11:59:47;;;;;;;20.40;15.47;;;;;;;;;;5090897;28;20090;-47
2022/04/27 12:02:14;;;;;;;23.73;15.90;;;;;;;;;;5090549;28;20061;-49
2022/04/27 12:04:42;;;;;;;26.95;16.38;;;;;;;;;;5090426;28;20020;-47
2022/04/27 12:07:11;;;;;;;25.23;16.00;;;;;;;;;;5089331;28;20110;-49
2022/04/27 12:09:37;;;;;;;21.95;15.77;;;;;;;;;;5090436;28;20020;-52
2022/04/27 12:12:11;;;;;;;23.08;15.80;;;;;;;;;;5090580;28;20035;-49
2022/04/27 12:14:38;;;;;;;21.10;15.13;;;;;;;;;;5090415;28;20036;-51
2022/04/27 12:17:04;;;;;;;20.88;14.40;;;;;;;;;;5090660;28;20081;-47
2022/04/27 12:19:30;;;;;;;20.00;14.43;;;;;;;;;;5090419;28;20043;-49
2022/04/27 12:22:15;;;;;;;22.20;14.32;;;;;;;;;;5090624;28;20035;-47
2022/04/27 12:24:47;;;;;;;20.40;14.05;;;;;;;;;;5093741;28;20418;-53
2022/04/27 12:27:23;;;;;;;19.75;14.05;;;;;;;;;;5093942;28;20020;-49
2022/04/27 12:29:48;;;;;;;19.10;14.18;;;;;;;;;;5093683;28;20081;-54
2022/04/27 12:32:14;;;;;;;21.13;14.25;;;;;;;;;;5093966;28;20036;-53
2022/04/27 12:37:30;;;;;;;23.63;15.13;;;;;;;;;;5094136;28;20035;-53
2022/04/27 12:39:56;;;;;;;18.90;13.13;;;;;;;;;;5093643;28;20077;-48
2022/04/27 12:42:21;;;;;;;16.58;12.10;;;;;;;;;;5093687;28;20036;-48
2022/04/27 12:44:47;;;;;;;17.50;11.85;;;;;;;;;;5071295;28;20552;-50
2022/04/27 12:47:14;;;;;;;16.20;11.95;;;;;;;;;;5083057;28;20461;-47
2022/04/27 12:49:50;;;;;;;15.77;11.48;;;;;;;;;;5074187;28;20080;-47
2022/04/27 12:52:23;;;;;;;16.10;11.48;;;;;;;;;;5056190;28;20740;-42
2022/04/27 12:54:52;;;;;;;18.25;11.60;;;;;;;;;;5073070;28;20111;-44
2022/04/27 12:57:18;;;;;;;16.67;11.98;;;;;;;;;;5073423;28;20075;-47
2022/04/27 13:00:04;;;;;;;19.20;13.02;;;;;;;;;;5055544;28;20474;-47
2022/04/27 13:02:29;;;;;;;19.73;13.07;;;;;;;;;;5072978;28;20028;-45
2022/04/27 13:04:55;;;;;;;16.95;12.82;;;;;;;;;;5072537;28;20028;-45
2022/04/27 13:07:21;;;;;;;20.35;13.80;;;;;;;;;;5073411;28;20464;-45
2022/04/27 13:12:36;;;;;;;19.52;13.38;;;;;;;;;;5073329;28;20039;-50
2022/04/27 13:15:03;;;;;;;19.10;13.00;;;;;;;;;;5073184;28;20025;-49
2022/04/27 13:17:28;;;;;;;18.25;12.93;;;;;;;;;;5073162;28;20388;-43
2022/04/27 13:19:54;;;;;;;15.68;12.05;;;;;;;;;;5073027;28;20025;-48
2022/04/27 13:22:24;;;;;;;16.98;11.73;;;;;;;;;;5072898;28;20380;-50
2022/04/27 13:24:50;;;;;;;21.67;12.73;;;;;;;;;;5072608;28;20384;-50
2022/04/27 13:27:16;;;;;;;19.30;13.98;;;;;;;;;;5080288;28;20365;-48
2022/04/27 13:29:42;;;;;;;20.05;12.55;;;;;;;;;;5083897;28;20040;-49
2022/04/27 13:32:07;;;;;;;25.95;14.73;;;;;;;;;;5077648;28;20040;-48
2022/04/27 13:34:33;;;;;;;20.95;12.98;;;;;;;;;;5071687;28;20044;-50
2022/04/27 13:36:58;;;;;;;22.55;14.52;;;;;;;;;;5076218;28;20048;-52
2022/04/27 13:39:23;;;;;;;20.83;14.50;;;;;;;;;;5081554;28;20020;-51
2022/04/27 13:41:49;;;;;;;23.33;14.88;;;;;;;;;;5082708;28;20039;-50
2022/04/27 13:44:14;;;;;;;18.20;13.43;;;;;;;;;;5080663;28;20034;-53
2022/04/27 13:46:40;;;;;;;19.52;13.13;;;;;;;;;;5092239;28;20115;-44
2022/04/27 13:49:05;;;;;;;20.90;13.48;;;;;;;;;;5092769;28;20028;-45
2022/04/27 13:51:32;;;;;;;17.83;13.32;;;;;;;;;;5091978;28;20133;-44
2022/04/27 13:53:59;;;;;;;18.67;12.90;;;;;;;;;;5092434;28;20032;-48
2022/04/27 13:56:27;;;;;;;18.67;12.45;;;;;;;;;;5092587;28;20398;-46
2022/04/27 13:58:52;;;;;;;17.90;12.80;;;;;;;;;;5092270;28;20054;-50
2022/04/27 14:01:18;;;;;;;19.48;12.75;;;;;;;;;;5092048;28;20717;-49
2022/04/27 14:03:45;;;;;;;17.75;13.10;;;;;;;;;;5092298;28;20076;-50
2022/04/27 14:06:10;;;;;;;16.45;13.32;;;;;;;;;;5092075;28;20605;-51
2022/04/27 14:08:36;;;;;;;17.35;12.95;;;;;;;;;;5081187;28;20119;-53
2022/04/27 14:11:02;;;;;;;19.98;14.10;;;;;;;;;;5071790;28;20078;-46
2022/04/27 14:13:27;;;;;;;19.08;13.65;;;;;;;;;;5071885;28;20052;-42
2022/04/27 14:18:37;;;;;;;14.75;10.73;;;;;;;;;;5071966;28;20529;-45
2022/04/27 14:21:02;;;;;;;18.73;12.05;;;;;;;;;;5071464;28;20032;-45
2022/04/27 14:23:28;;;;;;;14.65;10.85;;;;;;;;;;5071797;28;20024;-46
2022/04/27 14:25:53;;;;;;;16.10;11.23;;;;;;;;;;5071761;28;20021;-45
2022/04/27 14:28:20;;;;;;;17.52;11.82;;;;;;;;;;5071730;28;20028;-44
2022/04/27 14:30:50;;;;;;;13.27;10.05;;;;;;;;;;5071593;28;20094;-49
2022/04/27 14:33:19;;;;;;;15.48;9.77;;;;;;;;;;5071155;28;20460;-49
2022/04/27 14:35:45;;;;;;;10.90;8.40;;;;;;;;;;5071132;28;20035;-49
2022/04/27 14:38:12;;;;;;;7.60;6.10;;;;;;;;;;5071334;28;20435;-49
2022/04/27 14:40:38;;;;;;;10.55;7.45;;;;;;;;;;5073681;28;20024;-46
2022/04/27 14:43:05;;;;;;;10.50;8.02;;;;;;;;;;5079062;28;20039;-49
2022/04/27 14:45:35;;;;;;;11.65;8.75;;;;;;;;;;5078908;28;21339;-49
2022/04/27 14:48:02;;;;;;;11.13;7.32;;;;;;;;;;5062726;28;20077;-48
2022/04/27 14:50:27;;;;;;;6.68;5.35;;;;;;;;;;5091099;28;20121;-49
2022/04/27 14:52:53;;;;;;;10.82;7.47;;;;;;;;;;5073357;28;20036;-51
2022/04/27 14:55:19;;;;;;;7.45;6.18;;;;;;;;;;5091544;28;20031;-48
2022/04/27 14:57:45;;;;;;;9.07;6.25;;;;;;;;;;5091138;28;20028;-53